Terminal Aerodrome Forecast
Issued by NWS

Home | Current Version | Previous Version | Graphics & Text | Print | Product List | Glossary On
Versions: 1 2 3 4 5 6 7 8 9 10 11 12 13 14 15
146
FTUS43 KMPX 261120
TAFRWF
TAF
KRWF 261120Z 2612/2712 34013G22KT 6SM -DZ BR OVC009
     FM261400 34012G20KT P6SM OVC010
     FM261600 33014G23KT P6SM OVC015
     FM270300 33012G18KT P6SM OVC015=

USA.gov is the U.S. government's official web portal to all federal, state and local government web resources and services.